KCHA/CHA METAR and TAF weather

Enter ICAO airport designator
Station Type Date Time Source
KCHA METAR 2019/12/13 22:23 UTC NOAA

KCHA 132223Z 00000KT 1SM R02/P6000FT -DZ BR BKN004 OVC009 07/06 A2988 RMK AO2 P0001 T00670061


Station Type Date Time Source
KCHA Decoded METAR 2019/12/13 22:23 UTC NOAA

LOVELL FIELD, TN, United States (KCHA) 35-02N 085-12W 210M
Dec 13, 2019 - 05:23 PM EST / 2019.12.13 2223 UTC
Wind: Calm:0
Visibility: 1 mile(s):0
Sky conditions: overcast
Weather: light drizzle; mist
Precipitation last hour: 0.01 inches
Temperature: 44.1 F (6.7 C)
Dew Point: 43.0 F (6.1 C)
Relative Humidity: 95%
Pressure (altimeter): 29.88 in. Hg (1011 hPa)
ob: KCHA 132223Z 00000KT 1SM R02/P6000FT -DZ BR BKN004 OVC009 07/06 A2988 RMK AO2 P0001 T00670061
cycle: 22

Station Type Date Time Source
KCHA TAF 2019/12/13 20:27 UTC NOAA

TAF
AMD KCHA 132024Z 1320/1418 03004KT 2SM -RA BR OVC004
TEMPO 1320/1324 1 1/2SM -SHRA BR OVC003
FM140900 00000KT 2SM -DZ BR OVC004
FM141300 00000KT P6SM BKN006 PROB30 1413/1414 4SM -SHRA OVC004
FM141630 27005KT P6SM BKN015

Example: see airport list